Time;durP1;ratioP1;P1;durP2;ratioP2;P2;SDS_P1;SDS_P2;PMS_P1;PMS_P2;Temp;Humidity;BMP_temperature;BMP_pressure;BME280_temperature;BME280_humidity;BME280_pressure;Samples;Min_cycle;Max_cycle;Signal;HPM_P1;HPM_P2
2023/03/04 17:53:42;;;;;;;13.98;5.07;;;13.60;99.90;;;;;;5088522;27;20382;-64
2023/03/04 17:56:10;;;;;;;14.38;6.00;;;13.60;99.90;;;;;;5078736;28;20029;-65
2023/03/04 17:58:36;;;;;;;14.40;4.65;;;13.60;99.90;;;;;;5062062;28;20036;-65
2023/03/04 18:18:44;;;;;;;12.52;4.68;;;13.60;99.90;;;;;;5066949;28;20901;-60
2023/03/04 18:21:11;;;;;;;14.23;4.80;;;14.30;99.90;;;;;;5069759;28;20036;-57
2023/03/04 18:23:37;;;;;;;10.73;4.75;;;14.20;99.90;;;;;;5052915;28;20029;-57
2023/03/04 18:26:03;;;;;;;10.35;4.95;;;14.20;99.90;;;;;;5067031;28;20039;-59
2023/03/04 18:28:29;;;;;;;11.30;5.53;;;14.10;99.90;;;;;;5050047;28;20052;-60
2023/03/04 18:30:55;;;;;;;13.02;5.47;;;14.10;99.90;;;;;;5032233;28;20048;-59
2023/03/04 18:33:22;;;;;;;11.38;5.10;;;14.10;99.90;;;;;;5028746;28;20046;-58
2023/03/04 18:35:48;;;;;;;12.13;4.80;;;14.10;99.90;;;;;;5028718;28;20088;-59
2023/03/04 18:38:14;;;;;;;14.13;5.43;;;14.10;99.90;;;;;;5018425;28;20030;-59
2023/03/04 18:40:41;;;;;;;16.77;5.35;;;14.10;99.90;;;;;;5012055;28;20104;-60
2023/03/04 18:43:07;;;;;;;17.10;4.93;;;14.10;99.90;;;;;;5010978;28;20080;-59
2023/03/04 18:45:33;;;;;;;13.73;5.10;;;14.10;99.90;;;;;;5011520;28;20398;-60
2023/03/04 18:48:00;;;;;;;10.18;4.38;;;14.10;99.90;;;;;;5011660;28;20105;-60
2023/03/04 18:50:26;;;;;;;9.50;4.20;;;14.10;99.90;;;;;;5012221;28;20369;-59
2023/03/04 18:52:51;;;;;;;14.98;4.30;;;14.20;99.90;;;;;;5027180;28;20132;-59
2023/03/04 18:55:21;;;;;;;12.00;4.53;;;14.20;99.90;;;;;;5012036;28;20034;-60
2023/03/04 18:57:53;;;;;;;8.85;3.78;;;14.20;99.90;;;;;;5011505;28;20121;-61
2023/03/04 19:00:21;;;;;;;10.55;4.28;;;14.20;99.90;;;;;;5012073;28;20422;-61
2023/03/04 19:02:53;;;;;;;10.65;3.58;;;14.20;99.90;;;;;;5009469;28;20030;-64
2023/03/04 19:05:24;;;;;;;9.45;3.85;;;14.20;99.90;;;;;;5012162;28;20027;-60
2023/03/04 19:07:50;;;;;;;10.57;3.70;;;14.20;99.90;;;;;;5011559;28;20026;-59
2023/03/04 19:10:18;;;;;;;9.02;3.80;;;14.20;99.90;;;;;;5008268;28;20031;-61
2023/03/04 19:12:44;;;;;;;9.88;3.92;;;14.20;99.90;;;;;;4983342;28;20054;-62
2023/03/04 19:15:11;;;;;;;10.55;3.60;;;14.20;99.90;;;;;;5010837;28;20056;-62
2023/03/04 19:17:38;;;;;;;8.57;3.20;;;14.30;99.90;;;;;;5005653;28;20128;-61
2023/03/04 19:20:07;;;;;;;9.30;3.88;;;14.20;99.90;;;;;;5017574;28;20033;-61
2023/03/04 19:22:33;;;;;;;9.10;3.70;;;14.20;99.90;;;;;;5017883;28;20026;-60
2023/03/04 19:24:59;;;;;;;11.65;3.38;;;14.30;99.90;;;;;;5011892;28;20357;-61
2023/03/04 19:27:25;;;;;;;11.20;4.00;;;14.30;99.90;;;;;;5016936;28;20062;-61
2023/03/04 19:29:51;;;;;;;9.27;3.42;;;14.30;99.90;;;;;;5012915;28;20034;-61
2023/03/04 19:32:17;;;;;;;9.73;3.25;;;14.30;99.90;;;;;;5016617;28;20372;-61
2023/03/04 19:34:47;;;;;;;9.95;3.97;;;14.30;99.90;;;;;;5017515;28;20021;-61
2023/03/04 19:37:14;;;;;;;7.93;3.50;;;14.30;99.90;;;;;;5017572;28;20489;-61
2023/03/04 19:39:44;;;;;;;9.65;3.42;;;14.30;99.90;;;;;;5017631;28;20057;-62
2023/03/04 19:42:11;;;;;;;11.07;3.03;;;14.30;99.90;;;;;;5017404;28;20037;-61
2023/03/04 19:44:37;;;;;;;7.65;3.08;;;14.40;99.90;;;;;;5000757;28;20030;-61
2023/03/04 19:47:04;;;;;;;11.30;3.28;;;14.40;99.90;;;;;;4998952;28;20034;-61
2023/03/04 19:49:31;;;;;;;7.63;2.97;;;14.40;99.90;;;;;;5000627;28;20429;-61
2023/03/04 19:51:57;;;;;;;7.45;3.00;;;14.40;99.90;;;;;;5016752;28;20452;-63
2023/03/04 19:54:23;;;;;;;7.03;2.80;;;14.40;99.90;;;;;;5000586;28;20095;-61
2023/03/04 19:56:49;;;;;;;6.72;2.80;;;14.40;99.90;;;;;;5017357;28;20437;-61
2023/03/04 19:59:15;;;;;;;9.55;2.80;;;14.40;99.90;;;;;;4999487;28;20451;-59
2023/03/04 20:01:42;;;;;;;7.68;2.47;;;14.40;99.90;;;;;;5015540;28;20038;-60
2023/03/04 20:04:11;;;;;;;7.28;2.47;;;14.40;99.90;;;;;;5016949;28;20022;-60
2023/03/04 20:06:43;;;;;;;7.07;2.58;;;14.40;99.90;;;;;;5016869;28;20041;-60
2023/03/04 20:09:09;;;;;;;9.52;3.03;;;14.50;99.90;;;;;;5017398;28;20030;-60
2023/03/04 20:11:35;;;;;;;9.35;2.88;;;14.50;99.90;;;;;;5002748;28;20030;-60
2023/03/04 20:14:03;;;;;;;10.70;3.40;;;14.40;99.90;;;;;;5002489;28;20030;-60
2023/03/04 20:16:30;;;;;;;10.63;2.58;;;14.40;99.90;;;;;;5014692;28;20054;-61
2023/03/04 20:18:56;;;;;;;8.68;2.78;;;14.50;99.90;;;;;;5016167;28;20041;-60
2023/03/04 20:21:23;;;;;;;9.40;2.70;;;14.50;99.90;;;;;;5016690;28;20116;-60
2023/03/04 20:23:49;;;;;;;10.77;2.95;;;14.50;99.90;;;;;;4999103;28;20033;-60
2023/03/04 20:26:17;;;;;;;6.95;2.67;;;14.50;99.90;;;;;;5016242;28;20034;-59
2023/03/04 20:28:49;;;;;;;6.68;2.55;;;14.50;99.90;;;;;;4999847;28;20040;-60
2023/03/04 20:31:18;;;;;;;6.70;2.58;;;14.50;99.90;;;;;;5015404;28;20338;-60
2023/03/04 20:33:47;;;;;;;6.82;1.90;;;14.50;99.90;;;;;;5016480;28;20033;-60
2023/03/04 20:36:18;;;;;;;7.15;2.78;;;14.50;99.90;;;;;;5009929;28;20113;-60
2023/03/04 20:38:44;;;;;;;7.63;2.10;;;14.50;99.90;;;;;;4998389;28;20045;-60
2023/03/04 20:41:10;;;;;;;6.43;2.17;;;14.50;99.90;;;;;;5015803;28;20326;-60
2023/03/04 20:43:36;;;;;;;5.50;2.30;;;14.50;99.90;;;;;;5016498;28;20026;-60
2023/03/04 20:46:27;;;;;;;6.85;2.15;;;14.60;99.90;;;;;;5014615;28;20022;-60
2023/03/04 20:48:54;;;;;;;5.95;2.35;;;14.60;99.90;;;;;;5016712;28;20036;-60
2023/03/04 20:51:20;;;;;;;5.22;2.00;;;14.60;99.90;;;;;;5016373;28;20030;-60
2023/03/04 20:53:47;;;;;;;5.72;1.80;;;14.60;99.90;;;;;;5016647;28;20126;-61
2023/03/04 20:56:14;;;;;;;6.57;1.77;;;14.60;99.90;;;;;;4998126;28;20037;-60
2023/03/04 20:58:40;;;;;;;5.72;2.00;;;14.60;99.90;;;;;;5032139;28;20044;-61
2023/03/04 21:01:06;;;;;;;9.07;2.40;;;14.60;99.90;;;;;;4997315;28;20108;-60
2023/03/04 21:03:32;;;;;;;7.78;1.50;;;14.60;99.90;;;;;;5016585;28;20076;-61
2023/03/04 21:06:05;;;;;;;5.88;2.10;;;14.60;99.90;;;;;;5015641;28;20434;-60
2023/03/04 21:08:30;;;;;;;7.93;2.20;;;14.60;99.90;;;;;;5016488;28;20022;-60
2023/03/04 21:10:56;;;;;;;5.70;1.95;;;14.60;99.90;;;;;;5006725;28;20089;-62
2023/03/04 21:13:25;;;;;;;5.22;1.60;;;14.60;99.90;;;;;;4995706;28;20040;-60
2023/03/04 21:15:52;;;;;;;5.95;1.63;;;14.60;99.90;;;;;;5010744;28;20077;-61
2023/03/04 21:18:18;;;;;;;4.05;1.88;;;14.60;99.90;;;;;;5015385;28;20050;-60
2023/03/04 21:20:44;;;;;;;8.02;2.00;;;14.60;99.90;;;;;;5015046;28;20829;-60
2023/03/04 21:23:10;;;;;;;6.65;2.03;;;14.60;99.90;;;;;;5014718;28;20117;-60
2023/03/04 21:25:36;;;;;;;8.45;1.63;;;14.60;99.90;;;;;;5015721;28;20029;-61
2023/03/04 21:28:02;;;;;;;8.65;2.22;;;14.70;99.90;;;;;;5014837;28;20125;-60
2023/03/04 21:30:28;;;;;;;4.57;1.90;;;14.60;99.90;;;;;;5015585;28;20144;-60
2023/03/04 21:32:54;;;;;;;6.20;1.92;;;14.60;99.90;;;;;;5014722;28;20117;-59
2023/03/04 21:35:20;;;;;;;7.75;1.83;;;14.70;99.90;;;;;;5015628;28;20445;-59
2023/03/04 21:37:46;;;;;;;6.68;1.58;;;14.70;99.90;;;;;;5015505;28;20372;-60
2023/03/04 21:40:12;;;;;;;6.30;1.77;;;14.70;99.90;;;;;;5015762;28;20030;-60
2023/03/04 21:42:38;;;;;;;4.32;1.60;;;14.60;99.90;;;;;;5015346;28;20053;-59
2023/03/04 21:45:08;;;;;;;5.80;1.40;;;14.70;99.90;;;;;;5015732;28;20048;-60
2023/03/04 21:47:34;;;;;;;5.28;1.88;;;14.70;99.90;;;;;;4996897;28;20449;-60
2023/03/04 21:50:00;;;;;;;6.60;1.55;;;14.60;99.90;;;;;;5016062;28;20026;-59
2023/03/04 21:52:26;;;;;;;6.43;1.60;;;14.60;99.90;;;;;;5015203;28;20052;-59
2023/03/04 21:54:52;;;;;;;7.18;1.65;;;14.60;99.90;;;;;;5015748;28;20022;-59
2023/03/04 21:57:18;;;;;;;7.13;2.00;;;14.60;99.90;;;;;;5030665;28;20033;-59
2023/03/04 21:59:44;;;;;;;4.95;1.48;;;14.60;99.90;;;;;;5015899;28;20378;-60
2023/03/04 22:02:18;;;;;;;4.65;1.30;;;14.60;99.90;;;;;;5013771;28;20422;-59
2023/03/04 22:04:45;;;;;;;4.97;1.23;;;14.60;99.90;;;;;;4998666;28;20117;-60
2023/03/04 22:07:11;;;;;;;4.38;1.40;;;14.60;99.90;;;;;;5014962;28;20472;-62
2023/03/04 22:09:38;;;;;;;6.72;1.55;;;14.60;99.90;;;;;;5015728;28;20057;-60
2023/03/04 22:12:04;;;;;;;6.22;1.50;;;14.60;99.90;;;;;;4997014;28;20113;-65
2023/03/04 22:14:30;;;;;;;4.53;1.38;;;14.60;99.90;;;;;;5011453;28;20065;-59
2023/03/04 22:16:57;;;;;;;4.78;1.30;;;14.60;99.90;;;;;;4990735;28;20065;-60
2023/03/04 22:19:30;;;;;;;3.85;1.40;;;14.60;99.90;;;;;;5015554;28;20112;-59
2023/03/04 22:21:56;;;;;;;3.15;1.10;;;14.60;99.90;;;;;;5014951;28;20037;-60
2023/03/04 22:24:22;;;;;;;5.80;1.40;;;14.60;99.90;;;;;;4995821;28;20501;-59
2023/03/04 22:26:48;;;;;;;5.47;1.60;;;14.60;99.90;;;;;;4995691;28;20026;-59
2023/03/04 22:29:14;;;;;;;5.07;1.30;;;14.60;99.90;;;;;;4995877;28;20109;-59
2023/03/04 22:31:40;;;;;;;5.35;1.70;;;14.60;99.90;;;;;;4994533;28;20034;-60
2023/03/04 22:34:11;;;;;;;2.88;1.08;;;14.60;99.90;;;;;;5010958;28;20041;-64
2023/03/04 22:36:40;;;;;;;4.70;1.30;;;14.60;99.90;;;;;;5015043;28;20026;-60
2023/03/04 22:39:08;;;;;;;4.60;1.30;;;14.60;99.90;;;;;;5015542;28;20438;-59
2023/03/04 22:41:35;;;;;;;5.32;1.30;;;14.60;99.90;;;;;;5015078;28;20029;-59
2023/03/04 22:44:01;;;;;;;3.50;1.05;;;14.60;99.90;;;;;;5014163;28;20022;-59
2023/03/04 22:46:29;;;;;;;4.80;1.50;;;14.60;99.90;;;;;;5013586;28;20030;-59
2023/03/04 22:48:58;;;;;;;5.13;1.40;;;14.60;99.90;;;;;;5018942;28;20018;-59
2023/03/04 22:51:25;;;;;;;5.38;1.33;;;14.60;99.90;;;;;;5018452;28;20084;-60
2023/03/04 22:53:52;;;;;;;5.57;1.40;;;14.60;99.90;;;;;;5018803;28;20060;-59
2023/03/04 22:56:19;;;;;;;5.03;1.52;;;14.60;99.90;;;;;;5011828;28;20175;-59
2023/03/04 22:58:45;;;;;;;7.10;1.35;;;14.60;99.90;;;;;;5018965;28;20049;-60
2023/03/04 23:01:13;;;;;;;6.55;1.30;;;14.60;99.90;;;;;;5009228;28;20129;-60
2023/03/04 23:03:41;;;;;;;4.55;1.42;;;14.60;99.90;;;;;;4999306;28;20026;-59
2023/03/04 23:06:16;;;;;;;2.63;1.20;;;14.60;99.90;;;;;;5015340;28;20022;-59
2023/03/04 23:08:44;;;;;;;3.72;1.15;;;14.60;99.90;;;;;;5018580;28;20037;-60
2023/03/04 23:11:16;;;;;;;5.13;1.30;;;14.60;99.90;;;;;;5017934;28;20042;-64
2023/03/04 23:13:42;;;;;;;3.78;1.20;;;14.60;99.90;;;;;;5018814;28;20026;-60
2023/03/04 23:16:11;;;;;;;6.20;1.38;;;14.60;99.90;;;;;;5017209;28;20033;-59
2023/03/04 23:18:38;;;;;;;4.45;1.10;;;14.60;99.90;;;;;;5018117;28;20038;-59
2023/03/04 23:21:06;;;;;;;3.75;1.20;;;14.60;99.90;;;;;;5033393;28;20045;-59
2023/03/04 23:23:32;;;;;;;3.55;1.10;;;14.60;99.90;;;;;;5017341;28;20065;-60
2023/03/04 23:25:58;;;;;;;3.88;1.40;;;14.60;99.90;;;;;;5018121;28;20034;-59
2023/03/04 23:28:24;;;;;;;5.05;1.30;;;14.60;99.90;;;;;;5018001;28;20121;-59
2023/03/04 23:30:50;;;;;;;4.88;1.23;;;14.60;99.90;;;;;;4999970;28;20034;-61
2023/03/04 23:33:16;;;;;;;5.47;1.27;;;14.60;99.90;;;;;;5017795;28;20334;-60
2023/03/04 23:35:42;;;;;;;3.83;1.10;;;14.60;99.90;;;;;;5018008;28;20030;-59
2023/03/04 23:38:08;;;;;;;3.85;1.20;;;14.60;99.90;;;;;;5018202;28;20081;-59
2023/03/04 23:40:34;;;;;;;4.68;1.20;;;14.60;99.90;;;;;;5017425;28;20045;-60
2023/03/04 23:43:00;;;;;;;4.15;1.33;;;14.60;99.90;;;;;;5018125;28;20080;-59
2023/03/04 23:45:26;;;;;;;3.60;1.00;;;14.50;99.90;;;;;;5017682;28;20026;-60
2023/03/04 23:47:52;;;;;;;3.22;1.08;;;14.60;99.90;;;;;;5016932;28;20037;-60
2023/03/04 23:50:18;;;;;;;4.88;1.42;;;14.60;99.90;;;;;;5013149;28;20129;-59
2023/03/04 23:52:44;;;;;;;5.18;1.38;;;14.60;99.90;;;;;;5017655;28;20069;-59
2023/03/04 23:55:17;;;;;;;5.18;1.23;;;14.50;99.90;;;;;;5017987;28;20115;-59
2023/03/04 23:57:44;;;;;;;4.05;1.23;;;14.50;99.90;;;;;;5017227;28;20054;-59
